Time;durP1;ratioP1;P1;durP2;ratioP2;P2;SDS_P1;SDS_P2;PMS_P1;PMS_P2;Temp;Humidity;BMP_temperature;BMP_pressure;BME280_temperature;BME280_humidity;BME280_pressure;Samples;Min_cycle;Max_cycle;Signal;HPM_P1;HPM_P2
2021/03/25 00:00:24;;;;;;;;;;;19.10;36.10;;;;;;466561;254;1153;-45
2021/03/25 00:02:26;;;;;;;;;;;19.30;35.60;;;;;;466460;252;1288;-45
2021/03/25 00:04:27;;;;;;;;;;;19.40;35.30;;;;;;466716;254;2138;-45
2021/03/25 00:06:28;;;;;;;;;;;19.60;35.10;;;;;;466712;254;1141;-45
2021/03/25 00:08:30;;;;;;;;;;;19.70;34.90;;;;;;466579;254;1084;-45
2021/03/25 00:10:31;;;;;;;;;;;19.70;34.70;;;;;;466602;253;1151;-45
2021/03/25 00:12:32;;;;;;;;;;;19.90;34.60;;;;;;466678;254;1215;-45
2021/03/25 00:14:33;;;;;;;;;;;19.90;34.50;;;;;;466608;254;1057;-45
2021/03/25 00:16:35;;;;;;;;;;;19.90;34.50;;;;;;466888;247;1214;-45
2021/03/25 00:18:36;;;;;;;;;;;20.00;34.40;;;;;;466612;254;1185;-45
2021/03/25 00:20:37;;;;;;;;;;;20.00;34.30;;;;;;466627;254;1203;-45
2021/03/25 00:22:39;;;;;;;;;;;20.00;34.20;;;;;;466520;254;2149;-45
2021/03/25 00:24:40;;;;;;;;;;;20.10;34.20;;;;;;466669;254;1107;-45
2021/03/25 00:26:41;;;;;;;;;;;20.10;34.10;;;;;;466525;254;1262;-45
2021/03/25 00:28:42;;;;;;;;;;;20.10;34.10;;;;;;466449;254;1069;-45
2021/03/25 00:30:44;;;;;;;;;;;20.20;34.00;;;;;;466549;252;1129;-45
2021/03/25 00:32:45;;;;;;;;;;;20.20;34.00;;;;;;466499;255;1309;-45
2021/03/25 00:34:46;;;;;;;;;;;20.20;33.90;;;;;;466610;254;1061;-45
2021/03/25 00:36:47;;;;;;;;;;;20.30;33.80;;;;;;466629;254;1063;-45
2021/03/25 00:38:49;;;;;;;;;;;20.30;33.80;;;;;;466534;252;1136;-45
2021/03/25 00:40:50;;;;;;;;;;;20.40;33.80;;;;;;466742;254;1068;-45
2021/03/25 00:42:51;;;;;;;;;;;20.40;33.70;;;;;;466597;254;2157;-45
2021/03/25 00:44:53;;;;;;;;;;;20.40;33.60;;;;;;466509;254;1030;-45
2021/03/25 00:46:54;;;;;;;;;;;20.40;33.60;;;;;;466546;255;1062;-45
2021/03/25 00:48:55;;;;;;;;;;;20.50;33.60;;;;;;466510;254;1221;-45
2021/03/25 00:50:56;;;;;;;;;;;20.50;33.50;;;;;;466559;254;1102;-45
2021/03/25 00:52:58;;;;;;;;;;;20.50;33.50;;;;;;466481;254;1073;-46
2021/03/25 00:54:59;;;;;;;;;;;20.50;33.50;;;;;;466579;254;1083;-45
2021/03/25 00:57:00;;;;;;;;;;;20.60;33.50;;;;;;466463;254;1294;-45
2021/03/25 00:59:02;;;;;;;;;;;20.60;33.30;;;;;;466629;254;1065;-46
2021/03/25 01:01:05;;;;;;;;;;;20.70;33.40;;;;;;466756;254;1399;-45
2021/03/25 01:03:05;;;;;;;;;;;20.60;33.40;;;;;;466474;254;2494;-45
2021/03/25 01:05:06;;;;;;;;;;;20.60;33.30;;;;;;466642;254;1087;-45
2021/03/25 01:07:07;;;;;;;;;;;20.70;33.40;;;;;;466550;254;1249;-45
2021/03/25 01:09:09;;;;;;;;;;;20.70;33.30;;;;;;466484;255;1080;-45
2021/03/25 01:11:10;;;;;;;;;;;20.70;33.20;;;;;;466546;255;1121;-45
2021/03/25 01:13:11;;;;;;;;;;;20.70;33.20;;;;;;466553;254;1287;-45
2021/03/25 01:15:12;;;;;;;;;;;20.70;33.10;;;;;;466515;254;1052;-45
2021/03/25 01:17:14;;;;;;;;;;;20.80;33.20;;;;;;466684;254;1491;-45
2021/03/25 01:19:15;;;;;;;;;;;20.80;33.20;;;;;;466527;254;1148;-45
2021/03/25 01:21:16;;;;;;;;;;;20.80;33.20;;;;;;466535;254;1239;-45
2021/03/25 01:23:18;;;;;;;;;;;20.80;33.20;;;;;;466511;254;2149;-45
2021/03/25 01:25:19;;;;;;;;;;;20.80;33.10;;;;;;466589;253;1057;-45
2021/03/25 01:27:20;;;;;;;;;;;20.80;33.10;;;;;;466563;254;1233;-45
2021/03/25 01:29:21;;;;;;;;;;;20.90;33.10;;;;;;466499;255;1108;-45
2021/03/25 01:31:23;;;;;;;;;;;20.90;33.10;;;;;;466654;254;1180;-45
2021/03/25 01:33:24;;;;;;;;;;;20.90;33.10;;;;;;466756;254;1199;-45
2021/03/25 01:35:25;;;;;;;;;;;20.90;33.00;;;;;;466647;254;985;-45
2021/03/25 01:37:27;;;;;;;;;;;20.90;33.00;;;;;;466673;254;1038;-45
2021/03/25 01:39:28;;;;;;;;;;;20.90;33.00;;;;;;466488;252;1215;-45
2021/03/25 01:41:29;;;;;;;;;;;21.00;33.00;;;;;;466497;254;1090;-45
2021/03/25 01:43:31;;;;;;;;;;;21.00;33.00;;;;;;466607;254;2197;-45
2021/03/25 01:45:32;;;;;;;;;;;21.00;33.00;;;;;;466488;254;1221;-45
2021/03/25 01:47:33;;;;;;;;;;;21.00;32.90;;;;;;466536;254;1313;-45
2021/03/25 01:49:35;;;;;;;;;;;21.00;33.00;;;;;;466473;254;1205;-45
2021/03/25 01:51:36;;;;;;;;;;;21.00;32.90;;;;;;466678;254;1085;-45
2021/03/25 01:53:37;;;;;;;;;;;21.00;32.90;;;;;;466681;254;969;-45
2021/03/25 01:55:39;;;;;;;;;;;21.00;32.90;;;;;;466618;254;1071;-45
2021/03/25 01:57:40;;;;;;;;;;;21.00;32.90;;;;;;466576;255;1325;-45
2021/03/25 01:59:41;;;;;;;;;;;21.00;32.80;;;;;;466535;254;1032;-45
2021/03/25 02:01:42;;;;;;;;;;;21.10;32.90;;;;;;466746;254;1233;-45
2021/03/25 02:03:44;;;;;;;;;;;21.00;32.90;;;;;;466536;254;2173;-45
2021/03/25 02:05:45;;;;;;;;;;;21.10;32.90;;;;;;466574;252;1130;-45
2021/03/25 02:07:46;;;;;;;;;;;21.10;32.90;;;;;;466500;254;1162;-45
2021/03/25 02:09:48;;;;;;;;;;;21.10;32.80;;;;;;466542;254;1059;-45
2021/03/25 02:11:49;;;;;;;;;;;21.10;32.80;;;;;;466505;254;1098;-45
2021/03/25 02:13:50;;;;;;;;;;;21.10;32.90;;;;;;466575;254;1075;-45
2021/03/25 02:15:52;;;;;;;;;;;21.10;32.80;;;;;;466810;252;1207;-45
2021/03/25 02:17:53;;;;;;;;;;;21.10;32.80;;;;;;466688;254;1074;-45
2021/03/25 02:19:54;;;;;;;;;;;21.10;32.80;;;;;;466615;254;1166;-45
2021/03/25 02:21:56;;;;;;;;;;;21.10;32.80;;;;;;466612;255;1164;-45
2021/03/25 02:23:57;;;;;;;;;;;21.10;32.80;;;;;;466544;254;2165;-46
2021/03/25 02:25:58;;;;;;;;;;;21.20;32.80;;;;;;466506;254;1240;-45
2021/03/25 02:27:59;;;;;;;;;;;21.20;32.80;;;;;;466462;255;1089;-45
2021/03/25 02:30:01;;;;;;;;;;;21.20;32.80;;;;;;466587;254;1071;-45
2021/03/25 02:32:02;;;;;;;;;;;21.20;32.80;;;;;;466505;252;1114;-45
2021/03/25 02:34:03;;;;;;;;;;;21.20;32.80;;;;;;466455;254;1163;-45
2021/03/25 02:36:04;;;;;;;;;;;21.20;32.70;;;;;;466529;254;1145;-45
2021/03/25 02:38:06;;;;;;;;;;;21.20;32.80;;;;;;466492;252;1073;-45
2021/03/25 02:40:07;;;;;;;;;;;21.20;32.80;;;;;;466464;254;1069;-45
2021/03/25 02:42:09;;;;;;;;;;;21.20;32.70;;;;;;466479;254;1081;-45
2021/03/25 02:44:10;;;;;;;;;;;21.20;32.70;;;;;;466479;254;2192;-45
2021/03/25 02:46:11;;;;;;;;;;;21.20;32.70;;;;;;466586;254;1884;-45
2021/03/25 02:48:12;;;;;;;;;;;21.20;32.70;;;;;;466560;255;1129;-45
2021/03/25 02:50:13;;;;;;;;;;;21.20;32.70;;;;;;466648;254;1167;-45
2021/03/25 02:52:15;;;;;;;;;;;21.20;32.70;;;;;;466681;254;1256;-45
2021/03/25 02:54:16;;;;;;;;;;;21.20;32.70;;;;;;466535;254;1050;-45
2021/03/25 02:56:17;;;;;;;;;;;21.20;32.70;;;;;;466531;252;1218;-45
2021/03/25 02:58:19;;;;;;;;;;;21.20;32.70;;;;;;466701;254;1074;-45
2021/03/25 03:00:20;;;;;;;;;;;21.30;32.70;;;;;;466603;254;1092;-45
2021/03/25 03:02:21;;;;;;;;;;;21.30;32.70;;;;;;466603;254;1100;-45
2021/03/25 03:04:23;;;;;;;;;;;21.30;32.70;;;;;;466475;254;2205;-45
2021/03/25 03:06:24;;;;;;;;;;;21.30;32.70;;;;;;466514;254;1222;-45
2021/03/25 03:08:25;;;;;;;;;;;21.30;32.70;;;;;;466512;254;1039;-45
2021/03/25 03:10:26;;;;;;;;;;;21.30;32.70;;;;;;466656;254;1070;-45
2021/03/25 03:12:28;;;;;;;;;;;21.30;32.70;;;;;;466559;254;1092;-45
2021/03/25 03:14:29;;;;;;;;;;;21.30;32.70;;;;;;466567;254;1113;-45
2021/03/25 03:16:30;;;;;;;;;;;21.30;32.70;;;;;;466492;255;1634;-45
2021/03/25 03:18:32;;;;;;;;;;;21.30;32.70;;;;;;466717;254;1090;-45
2021/03/25 03:20:33;;;;;;;;;;;21.30;32.70;;;;;;466546;254;1165;-45
2021/03/25 03:22:34;;;;;;;;;;;21.30;32.70;;;;;;466590;252;1131;-45
2021/03/25 03:24:35;;;;;;;;;;;21.30;32.70;;;;;;466616;254;2201;-45
2021/03/25 03:26:37;;;;;;;;;;;21.30;32.70;;;;;;466551;254;1057;-45
2021/03/25 03:28:38;;;;;;;;;;;21.30;32.70;;;;;;466664;252;1112;-45
2021/03/25 03:30:39;;;;;;;;;;;21.30;32.70;;;;;;466514;248;1188;-45
2021/03/25 03:32:41;;;;;;;;;;;21.30;32.70;;;;;;466593;255;1093;-45
2021/03/25 03:34:42;;;;;;;;;;;21.30;32.70;;;;;;466675;254;1145;-45
2021/03/25 03:36:43;;;;;;;;;;;21.40;32.80;;;;;;466618;252;1084;-45
2021/03/25 03:38:44;;;;;;;;;;;21.30;32.70;;;;;;466584;254;1037;-45
2021/03/25 03:40:46;;;;;;;;;;;21.30;32.70;;;;;;466948;254;1053;-45
2021/03/25 03:42:47;;;;;;;;;;;21.30;32.70;;;;;;466764;254;1046;-45
2021/03/25 03:44:48;;;;;;;;;;;21.30;32.70;;;;;;466669;254;2157;-45
2021/03/25 03:46:49;;;;;;;;;;;21.40;32.80;;;;;;466774;254;1010;-45
2021/03/25 03:48:51;;;;;;;;;;;21.30;32.70;;;;;;466669;252;1072;-45
2021/03/25 03:50:52;;;;;;;;;;;21.40;32.80;;;;;;466513;254;1206;-45
2021/03/25 03:52:53;;;;;;;;;;;21.30;32.70;;;;;;466494;254;1117;-45
2021/03/25 03:54:55;;;;;;;;;;;21.30;32.70;;;;;;466532;252;1080;-45
2021/03/25 03:56:56;;;;;;;;;;;21.40;32.80;;;;;;466518;254;1117;-45
2021/03/25 03:58:57;;;;;;;;;;;21.40;32.70;;;;;;466474;254;1109;-45
2021/03/25 04:00:58;;;;;;;;;;;21.40;32.70;;;;;;466655;254;1077;-45
2021/03/25 04:03:00;;;;;;;;;;;21.40;32.70;;;;;;466674;254;1074;-45
2021/03/25 04:05:01;;;;;;;;;;;21.40;32.70;;;;;;466554;254;2200;-45
2021/03/25 04:07:02;;;;;;;;;;;21.40;32.70;;;;;;466783;254;1030;-45
2021/03/25 04:09:03;;;;;;;;;;;21.40;32.70;;;;;;466563;254;1072;-45
2021/03/25 04:11:05;;;;;;;;;;;21.40;32.70;;;;;;466570;253;1127;-45
2021/03/25 04:13:06;;;;;;;;;;;21.40;32.70;;;;;;466565;255;1068;-45
2021/03/25 04:15:07;;;;;;;;;;;21.40;32.70;;;;;;466534;254;1088;-45
2021/03/25 04:17:09;;;;;;;;;;;21.40;32.70;;;;;;466442;255;1150;-45
2021/03/25 04:19:10;;;;;;;;;;;21.40;32.70;;;;;;466532;254;1132;-45
2021/03/25 04:21:11;;;;;;;;;;;21.40;32.80;;;;;;466533;254;1183;-45
2021/03/25 04:23:12;;;;;;;;;;;21.40;32.80;;;;;;466460;255;1071;-45
2021/03/25 04:25:14;;;;;;;;;;;21.40;32.80;;;;;;466518;254;2204;-45
2021/03/25 04:27:15;;;;;;;;;;;21.40;32.80;;;;;;466623;254;1217;-45
2021/03/25 04:29:16;;;;;;;;;;;21.40;32.70;;;;;;466625;254;1042;-45
2021/03/25 04:31:18;;;;;;;;;;;21.40;32.70;;;;;;466544;247;1166;-45
2021/03/25 04:33:19;;;;;;;;;;;21.40;32.70;;;;;;466728;254;1102;-45
2021/03/25 04:35:20;;;;;;;;;;;21.40;32.70;;;;;;466588;254;1180;-45
2021/03/25 04:37:22;;;;;;;;;;;21.40;32.70;;;;;;466643;255;1296;-45
2021/03/25 04:39:23;;;;;;;;;;;21.40;32.70;;;;;;466551;254;1173;-45
2021/03/25 04:41:24;;;;;;;;;;;21.40;32.70;;;;;;466579;252;1394;-45
2021/03/25 04:43:25;;;;;;;;;;;21.50;32.70;;;;;;466739;255;1049;-44
2021/03/25 04:45:26;;;;;;;;;;;21.50;32.60;;;;;;466629;254;2209;-45
2021/03/25 04:47:28;;;;;;;;;;;21.50;32.60;;;;;;466538;254;1694;-45
2021/03/25 04:49:29;;;;;;;;;;;21.50;32.60;;;;;;466452;254;1167;-45
2021/03/25 04:51:30;;;;;;;;;;;21.50;32.60;;;;;;466458;254;1176;-45
2021/03/25 04:53:32;;;;;;;;;;;21.50;32.60;;;;;;466521;254;1061;-45
2021/03/25 04:55:33;;;;;;;;;;;21.50;32.60;;;;;;466769;254;1047;-45
2021/03/25 04:57:34;;;;;;;;;;;21.50;32.60;;;;;;466680;254;1435;-45
2021/03/25 04:59:35;;;;;;;;;;;21.50;32.60;;;;;;466641;254;1115;-45
2021/03/25 05:01:37;;;;;;;;;;;21.50;32.60;;;;;;466726;254;1236;-45
2021/03/25 05:03:38;;;;;;;;;;;21.50;32.60;;;;;;466555;254;1079;-45
2021/03/25 05:05:39;;;;;;;;;;;21.50;32.60;;;;;;466515;254;2209;-45
2021/03/25 05:07:41;;;;;;;;;;;21.50;32.60;;;;;;466507;255;1347;-45
2021/03/25 05:09:42;;;;;;;;;;;21.50;32.60;;;;;;466558;255;1041;-45
2021/03/25 05:11:43;;;;;;;;;;;21.50;32.60;;;;;;466586;254;1268;-45
2021/03/25 05:13:44;;;;;;;;;;;21.50;32.60;;;;;;466483;255;1118;-45
2021/03/25 05:15:46;;;;;;;;;;;21.50;32.60;;;;;;466440;254;1053;-45
2021/03/25 05:17:47;;;;;;;;;;;21.50;32.60;;;;;;466534;254;1107;-45
2021/03/25 05:19:48;;;;;;;;;;;21.50;32.60;;;;;;466678;254;1071;-45
2021/03/25 05:21:49;;;;;;;;;;;21.50;32.60;;;;;;466440;252;1330;-45
2021/03/25 05:23:51;;;;;;;;;;;21.50;32.60;;;;;;466392;254;1123;-46
2021/03/25 05:25:52;;;;;;;;;;;21.50;32.60;;;;;;466451;252;2196;-45
2021/03/25 05:27:53;;;;;;;;;;;21.50;32.70;;;;;;466526;254;1064;-45
2021/03/25 05:29:55;;;;;;;;;;;21.50;32.60;;;;;;466359;255;1100;-45
2021/03/25 05:31:56;;;;;;;;;;;21.60;32.60;;;;;;466499;254;1389;-45
2021/03/25 05:33:57;;;;;;;;;;;21.60;32.60;;;;;;466420;254;1099;-45
2021/03/25 05:35:58;;;;;;;;;;;21.60;32.60;;;;;;466304;254;1172;-45
2021/03/25 05:38:00;;;;;;;;;;;21.50;32.60;;;;;;466299;254;1112;-45
2021/03/25 05:40:01;;;;;;;;;;;21.60;32.70;;;;;;466320;254;1074;-45
2021/03/25 05:42:02;;;;;;;;;;;21.50;32.60;;;;;;466363;254;1068;-45
2021/03/25 05:44:04;;;;;;;;;;;21.50;32.60;;;;;;466363;254;1075;-45
2021/03/25 05:46:05;;;;;;;;;;;21.50;32.60;;;;;;466584;252;2208;-45
2021/03/25 05:48:06;;;;;;;;;;;21.50;32.60;;;;;;466423;254;1114;-45
2021/03/25 05:50:07;;;;;;;;;;;21.50;32.60;;;;;;466358;254;1069;-45
2021/03/25 05:52:09;;;;;;;;;;;21.60;32.60;;;;;;466351;254;1068;-45
2021/03/25 05:54:10;;;;;;;;;;;21.60;32.60;;;;;;466420;254;1097;-45
2021/03/25 05:56:11;;;;;;;;;;;21.60;32.60;;;;;;466377;254;1078;-45
2021/03/25 05:58:13;;;;;;;;;;;21.60;32.60;;;;;;466408;254;1096;-45
2021/03/25 06:00:14;;;;;;;;;;;21.60;32.60;;;;;;466404;254;1050;-45
2021/03/25 06:02:15;;;;;;;;;;;21.60;32.70;;;;;;466287;254;1332;-45
2021/03/25 06:04:16;;;;;;;;;;;21.60;32.60;;;;;;466271;254;1090;-45
2021/03/25 06:06:18;;;;;;;;;;;21.60;32.60;;;;;;466220;252;2194;-45
2021/03/25 06:08:19;;;;;;;;;;;21.60;32.60;;;;;;466370;254;1125;-45
2021/03/25 06:10:20;;;;;;;;;;;21.60;32.60;;;;;;466306;254;1137;-45
2021/03/25 06:12:22;;;;;;;;;;;21.60;32.60;;;;;;466296;254;1140;-45
2021/03/25 06:14:23;;;;;;;;;;;21.60;32.60;;;;;;466315;254;1047;-45
2021/03/25 06:16:24;;;;;;;;;;;21.60;32.60;;;;;;466338;248;1148;-45
2021/03/25 06:18:25;;;;;;;;;;;21.60;32.60;;;;;;466324;254;1054;-46
2021/03/25 06:20:27;;;;;;;;;;;21.60;32.60;;;;;;466277;254;1282;-45
2021/03/25 06:22:28;;;;;;;;;;;21.60;32.60;;;;;;466315;254;1076;-45
2021/03/25 06:24:29;;;;;;;;;;;21.70;32.50;;;;;;466309;254;1311;-45
2021/03/25 06:26:31;;;;;;;;;;;21.60;32.50;;;;;;466108;255;2201;-45
2021/03/25 06:28:32;;;;;;;;;;;21.60;32.60;;;;;;466252;254;1131;-45
2021/03/25 06:30:34;;;;;;;;;;;21.60;32.60;;;;;;466239;254;1075;-45
2021/03/25 06:32:35;;;;;;;;;;;21.60;32.60;;;;;;466119;254;1273;-45
2021/03/25 06:34:36;;;;;;;;;;;21.60;32.60;;;;;;466179;254;1118;-45
2021/03/25 06:36:37;;;;;;;;;;;21.60;32.50;;;;;;466040;254;1172;-45
2021/03/25 06:38:39;;;;;;;;;;;21.70;32.60;;;;;;466183;254;1070;-45
2021/03/25 06:40:40;;;;;;;;;;;21.70;32.60;;;;;;466271;255;1047;-45
2021/03/25 06:42:42;;;;;;;;;;;21.70;32.50;;;;;;466204;254;1171;-45
2021/03/25 06:44:43;;;;;;;;;;;21.70;32.50;;;;;;466301;254;1099;-45
2021/03/25 06:46:44;;;;;;;;;;;21.70;32.60;;;;;;466266;251;1181;-45
2021/03/25 06:48:45;;;;;;;;;;;21.70;32.60;;;;;;466131;254;1075;-45
2021/03/25 06:50:47;;;;;;;;;;;21.70;32.60;;;;;;466146;254;1313;-45
2021/03/25 06:52:48;;;;;;;;;;;21.70;32.50;;;;;;466116;254;1426;-45
2021/03/25 06:54:50;;;;;;;;;;;21.70;32.50;;;;;;466244;254;1120;-45
2021/03/25 06:56:51;;;;;;;;;;;21.70;32.50;;;;;;466175;254;1109;-45
2021/03/25 06:58:52;;;;;;;;;;;21.70;32.50;;;;;;466052;254;1107;-45
2021/03/25 07:00:54;;;;;;;;;;;21.70;32.50;;;;;;465936;254;1199;-45
2021/03/25 07:02:55;;;;;;;;;;;21.70;32.50;;;;;;466063;254;1175;-45
2021/03/25 07:04:56;;;;;;;;;;;21.70;32.60;;;;;;465945;255;2272;-45
2021/03/25 07:06:58;;;;;;;;;;;21.70;32.60;;;;;;466099;254;1328;-45
2021/03/25 07:08:59;;;;;;;;;;;21.70;32.60;;;;;;466126;254;1103;-45
2021/03/25 07:11:02;;;;;;;;;;;21.70;32.60;;;;;;466018;254;1062;-45
2021/03/25 07:13:05;;;;;;;;;;;21.70;32.50;;;;;;465818;255;1891;-45
2021/03/25 07:15:06;;;;;;;;;;;21.70;32.50;;;;;;465930;254;1170;-45
2021/03/25 07:17:09;;;;;;;;;;;21.70;32.50;;;;;;465891;252;1097;-45
2021/03/25 07:19:11;;;;;;;;;;;21.70;32.50;;;;;;466022;254;1287;-45
2021/03/25 07:21:10;;;;;;;;;;;21.70;32.60;;;;;;465992;255;1906;-45
2021/03/25 07:23:11;;;;;;;;;;;21.70;32.50;;;;;;466047;254;1103;-45
2021/03/25 07:25:13;;;;;;;;;;;21.70;32.50;;;;;;465894;254;2189;-45
2021/03/25 07:27:14;;;;;;;;;;;21.70;32.50;;;;;;465994;254;1112;-45
2021/03/25 07:29:15;;;;;;;;;;;21.70;32.40;;;;;;466024;254;1292;-45
2021/03/25 07:31:16;;;;;;;;;;;21.70;32.50;;;;;;466024;254;1159;-45
2021/03/25 07:33:18;;;;;;;;;;;21.70;32.50;;;;;;465910;254;1120;-45
2021/03/25 07:35:19;;;;;;;;;;;21.70;32.50;;;;;;465906;254;1214;-45
2021/03/25 07:37:20;;;;;;;;;;;21.70;32.50;;;;;;465805;254;1311;-45
2021/03/25 07:39:21;;;;;;;;;;;21.70;32.50;;;;;;465726;254;1158;-45
2021/03/25 07:41:23;;;;;;;;;;;21.70;32.50;;;;;;465703;254;1559;-45
2021/03/25 07:43:24;;;;;;;;;;;21.70;32.50;;;;;;465836;254;1095;-45
2021/03/25 07:45:25;;;;;;;;;;;21.70;32.50;;;;;;465856;254;2181;-45
2021/03/25 07:47:27;;;;;;;;;;;21.80;32.50;;;;;;465822;252;1176;-45
2021/03/25 07:49:28;;;;;;;;;;;21.80;32.40;;;;;;465973;254;1112;-45
2021/03/25 07:51:29;;;;;;;;;;;21.70;32.50;;;;;;465793;252;1278;-45
2021/03/25 07:53:31;;;;;;;;;;;21.70;32.50;;;;;;465877;254;1105;-45
2021/03/25 07:55:32;;;;;;;;;;;21.70;32.50;;;;;;465737;254;1567;-45
2021/03/25 07:57:33;;;;;;;;;;;21.70;32.40;;;;;;465875;254;1639;-46
2021/03/25 07:59:34;;;;;;;;;;;21.80;32.50;;;;;;465841;255;1090;-45
2021/03/25 08:01:36;;;;;;;;;;;21.80;32.50;;;;;;465864;254;1113;-45
2021/03/25 08:03:37;;;;;;;;;;;21.80;32.50;;;;;;465734;250;1446;-45
2021/03/25 08:05:38;;;;;;;;;;;21.80;32.50;;;;;;465835;252;2205;-45
2021/03/25 08:07:39;;;;;;;;;;;21.80;32.40;;;;;;465930;254;1296;-45
2021/03/25 08:09:41;;;;;;;;;;;21.80;32.50;;;;;;465637;254;1104;-45
2021/03/25 08:11:42;;;;;;;;;;;21.90;32.30;;;;;;465862;254;1226;-45
2021/03/25 08:13:43;;;;;;;;;;;21.80;32.40;;;;;;465833;252;1141;-45
2021/03/25 08:15:45;;;;;;;;;;;21.40;33.10;;;;;;465815;255;1123;-45
2021/03/25 08:17:46;;;;;;;;;;;20.90;33.90;;;;;;465806;254;1097;-45
2021/03/25 08:19:47;;;;;;;;;;;20.50;34.50;;;;;;465761;250;1489;-45
2021/03/25 08:21:48;;;;;;;;;;;20.30;34.90;;;;;;465766;254;1216;-45
2021/03/25 08:23:50;;;;;;;;;;;20.10;35.20;;;;;;465697;254;1124;-45
2021/03/25 08:25:51;;;;;;;;;;;20.00;35.50;;;;;;465542;252;2197;-45
2021/03/25 08:27:52;;;;;;;;;;;20.00;35.50;;;;;;465718;254;1210;-45
2021/03/25 08:29:53;;;;;;;;;;;19.80;35.70;;;;;;465808;255;1106;-45
2021/03/25 08:31:55;;;;;;;;;;;19.70;36.00;;;;;;465827;254;1200;-45
2021/03/25 08:33:58;;;;;;;;;;;19.70;36.10;;;;;;465782;254;1121;-45
2021/03/25 08:35:58;;;;;;;;;;;19.60;36.10;;;;;;465562;247;2413;-45
2021/03/25 08:37:59;;;;;;;;;;;19.60;36.20;;;;;;465774;255;1138;-45
2021/03/25 08:40:00;;;;;;;;;;;19.50;36.30;;;;;;465818;254;1101;-45
2021/03/25 08:42:01;;;;;;;;;;;19.50;36.40;;;;;;465913;254;1158;-45
2021/03/25 08:44:03;;;;;;;;;;;19.40;36.50;;;;;;465815;254;1244;-45
2021/03/25 08:46:04;;;;;;;;;;;19.40;36.50;;;;;;465669;254;2193;-45
2021/03/25 08:48:05;;;;;;;;;;;19.40;36.50;;;;;;465766;254;1110;-45
2021/03/25 08:50:07;;;;;;;;;;;19.30;36.60;;;;;;465820;253;1283;-45
2021/03/25 08:52:08;;;;;;;;;;;19.30;36.60;;;;;;465703;254;1239;-45
2021/03/25 08:54:09;;;;;;;;;;;19.30;36.60;;;;;;465646;254;1693;-45
2021/03/25 08:56:11;;;;;;;;;;;19.30;36.70;;;;;;465596;252;1206;-45
2021/03/25 08:58:12;;;;;;;;;;;19.20;36.70;;;;;;465628;254;1258;-45
2021/03/25 09:00:13;;;;;;;;;;;19.20;36.80;;;;;;465809;254;1080;-45
2021/03/25 09:02:15;;;;;;;;;;;19.20;36.80;;;;;;465672;254;1140;-45
2021/03/25 09:04:16;;;;;;;;;;;19.20;36.80;;;;;;465775;254;1260;-45
2021/03/25 09:06:17;;;;;;;;;;;19.20;36.80;;;;;;465630;254;2208;-45
2021/03/25 09:08:18;;;;;;;;;;;19.20;36.80;;;;;;465805;254;1259;-45
2021/03/25 09:10:20;;;;;;;;;;;19.20;36.80;;;;;;465710;254;1108;-45
2021/03/25 09:12:21;;;;;;;;;;;19.20;36.80;;;;;;465665;254;1323;-45
2021/03/25 09:14:22;;;;;;;;;;;19.20;36.70;;;;;;465757;254;1135;-45
2021/03/25 09:16:24;;;;;;;;;;;19.20;36.80;;;;;;465803;254;1222;-45
2021/03/25 09:18:25;;;;;;;;;;;19.10;36.90;;;;;;465863;255;1141;-45
2021/03/25 09:20:26;;;;;;;;;;;19.10;36.90;;;;;;465824;254;1342;-45
2021/03/25 09:22:28;;;;;;;;;;;19.00;36.90;;;;;;465894;254;1304;-45
2021/03/25 09:24:29;;;;;;;;;;;19.00;37.00;;;;;;465744;254;1149;-45
2021/03/25 09:26:30;;;;;;;;;;;19.00;37.10;;;;;;465749;254;2190;-45
2021/03/25 09:28:31;;;;;;;;;;;19.00;37.10;;;;;;465828;253;1093;-45
2021/03/25 09:30:33;;;;;;;;;;;19.00;37.00;;;;;;465844;254;1127;-45
2021/03/25 09:32:34;;;;;;;;;;;19.00;37.00;;;;;;465830;254;1149;-45
2021/03/25 09:34:35;;;;;;;;;;;18.90;37.00;;;;;;465866;254;1117;-45
2021/03/25 09:36:37;;;;;;;;;;;18.90;37.10;;;;;;465878;254;1280;-45
2021/03/25 09:38:38;;;;;;;;;;;18.90;37.10;;;;;;465778;254;1248;-45
2021/03/25 09:40:39;;;;;;;;;;;18.90;37.10;;;;;;465500;254;1136;-45
2021/03/25 09:42:40;;;;;;;;;;;18.90;37.10;;;;;;465608;254;1111;-45
2021/03/25 09:44:42;;;;;;;;;;;18.90;37.10;;;;;;465677;254;1156;-45
2021/03/25 09:46:43;;;;;;;;;;;18.90;37.10;;;;;;465423;254;2197;-45
2021/03/25 09:48:44;;;;;;;;;;;18.90;37.10;;;;;;465612;254;1191;-45
2021/03/25 09:50:46;;;;;;;;;;;18.90;37.20;;;;;;465637;249;1367;-45
2021/03/25 09:52:47;;;;;;;;;;;18.80;37.10;;;;;;465779;254;1208;-45
2021/03/25 09:54:48;;;;;;;;;;;18.80;37.20;;;;;;465664;254;1087;-45
2021/03/25 09:56:49;;;;;;;;;;;18.80;37.20;;;;;;465616;253;1089;-45
2021/03/25 09:58:51;;;;;;;;;;;18.80;37.20;;;;;;465743;254;1124;-45
2021/03/25 10:00:52;;;;;;;;;;;18.80;37.20;;;;;;465770;254;1112;-45
2021/03/25 10:02:54;;;;;;;;;;;18.80;37.30;;;;;;465783;254;1312;-45
2021/03/25 10:04:55;;;;;;;;;;;18.70;37.20;;;;;;465743;254;1110;-45
2021/03/25 10:06:58;;;;;;;;;;;18.80;37.30;;;;;;465754;254;2177;-45
2021/03/25 10:08:58;;;;;;;;;;;18.80;37.30;;;;;;465617;254;2183;-45
2021/03/25 10:11:00;;;;;;;;;;;18.80;37.30;;;;;;465611;255;1065;-45
2021/03/25 10:13:00;;;;;;;;;;;18.70;37.20;;;;;;465697;254;1505;-45
2021/03/25 10:15:02;;;;;;;;;;;18.70;37.20;;;;;;465667;256;1131;-45
2021/03/25 10:17:03;;;;;;;;;;;18.80;37.20;;;;;;465661;254;1108;-45
2021/03/25 10:19:05;;;;;;;;;;;18.70;37.20;;;;;;465759;254;1087;-45
2021/03/25 10:21:08;;;;;;;;;;;18.70;37.20;;;;;;465581;255;1989;-45
2021/03/25 10:23:10;;;;;;;;;;;18.70;37.20;;;;;;465696;254;1338;-45
2021/03/25 10:25:11;;;;;;;;;;;18.70;37.20;;;;;;465655;254;1142;-45
2021/03/25 10:27:12;;;;;;;;;;;18.70;37.20;;;;;;465707;254;2391;-45
2021/03/25 10:29:13;;;;;;;;;;;18.70;37.20;;;;;;465696;254;1173;-45
2021/03/25 10:31:15;;;;;;;;;;;18.70;37.20;;;;;;465748;254;1314;-45
2021/03/25 10:33:16;;;;;;;;;;;18.70;37.10;;;;;;465676;254;1085;-45
2021/03/25 10:35:17;;;;;;;;;;;18.70;37.10;;;;;;465593;254;1141;-45
2021/03/25 10:37:19;;;;;;;;;;;18.70;37.10;;;;;;465526;253;1116;-45
2021/03/25 10:39:20;;;;;;;;;;;18.70;37.20;;;;;;465707;254;1154;-45
2021/03/25 10:41:21;;;;;;;;;;;18.70;37.20;;;;;;465740;254;1122;-45
2021/03/25 10:43:22;;;;;;;;;;;18.60;37.20;;;;;;465797;253;1139;-45
2021/03/25 10:45:24;;;;;;;;;;;18.60;37.20;;;;;;465841;254;1171;-45
2021/03/25 10:47:25;;;;;;;;;;;18.60;37.30;;;;;;465801;254;2244;-45
2021/03/25 10:49:26;;;;;;;;;;;18.60;37.30;;;;;;465798;254;1067;-45
2021/03/25 10:51:27;;;;;;;;;;;18.60;37.20;;;;;;465847;252;1256;-45
2021/03/25 10:53:29;;;;;;;;;;;18.60;37.20;;;;;;466244;254;1164;-45
2021/03/25 10:55:30;;;;;;;;;;;18.60;37.20;;;;;;465763;254;1104;-45
2021/03/25 10:57:31;;;;;;;;;;;18.60;37.20;;;;;;465993;254;1237;-45
2021/03/25 10:59:33;;;;;;;;;;;18.60;37.20;;;;;;465851;254;1118;-45
2021/03/25 11:01:34;;;;;;;;;;;18.60;37.20;;;;;;465724;254;1273;-45
2021/03/25 11:03:35;;;;;;;;;;;18.60;37.20;;;;;;465708;255;1272;-45
2021/03/25 11:05:36;;;;;;;;;;;18.50;37.20;;;;;;465630;253;1172;-45
2021/03/25 11:07:38;;;;;;;;;;;18.50;37.30;;;;;;465945;254;2146;-45
2021/03/25 11:09:39;;;;;;;;;;;18.50;37.30;;;;;;465953;254;1136;-45
2021/03/25 11:11:40;;;;;;;;;;;18.50;37.20;;;;;;465990;254;1205;-45
2021/03/25 11:13:41;;;;;;;;;;;18.50;37.20;;;;;;466160;254;1074;-45
2021/03/25 11:15:43;;;;;;;;;;;18.50;37.20;;;;;;465826;254;1333;-45
2021/03/25 11:17:44;;;;;;;;;;;18.50;37.10;;;;;;465972;254;1171;-45
2021/03/25 11:19:45;;;;;;;;;;;18.50;37.20;;;;;;465696;254;1148;-45
2021/03/25 11:21:47;;;;;;;;;;;18.50;37.10;;;;;;465941;252;1174;-45
2021/03/25 11:23:48;;;;;;;;;;;18.50;37.20;;;;;;465917;253;1370;-45
2021/03/25 11:25:49;;;;;;;;;;;18.50;37.20;;;;;;465246;254;1235;-45
2021/03/25 11:27:50;;;;;;;;;;;18.50;37.30;;;;;;466213;254;2188;-45
2021/03/25 11:29:52;;;;;;;;;;;18.50;37.30;;;;;;465708;254;1134;-44
2021/03/25 11:31:53;;;;;;;;;;;18.50;37.40;;;;;;465653;254;1160;-45
2021/03/25 11:33:54;;;;;;;;;;;18.40;37.30;;;;;;465628;254;1341;-45
2021/03/25 11:35:55;;;;;;;;;;;18.50;37.30;;;;;;465703;254;1177;-45
2021/03/25 11:37:57;;;;;;;;;;;18.40;37.30;;;;;;465826;253;1187;-45
2021/03/25 11:39:58;;;;;;;;;;;18.50;37.20;;;;;;465721;254;1201;-45
2021/03/25 11:41:59;;;;;;;;;;;18.50;37.10;;;;;;465783;254;1089;-45
2021/03/25 11:44:01;;;;;;;;;;;18.50;37.20;;;;;;465740;254;1226;-45
2021/03/25 11:46:02;;;;;;;;;;;18.50;37.20;;;;;;465647;254;1182;-45
2021/03/25 11:48:04;;;;;;;;;;;18.50;37.10;;;;;;465734;252;2189;-45
2021/03/25 11:50:05;;;;;;;;;;;18.60;37.10;;;;;;465764;254;1320;-45
2021/03/25 11:52:09;;;;;;;;;;;18.50;37.10;;;;;;465652;254;1249;-45
2021/03/25 11:54:08;;;;;;;;;;;18.40;37.20;;;;;;465580;254;2170;-45
2021/03/25 11:56:09;;;;;;;;;;;18.40;37.30;;;;;;465641;255;1217;-45